ADDS TAF Board (Experimental) INFO Settings
IDs: Format: Expanded Condensed

KSFO - San Francisco Intl, CA, US

Issued at 0533 UTC 30 Jun 2016
Updated at: 0831 UTC 30 Jun 2016
Time0756Z 30/09Z 30/10Z 30/11Z 30/12Z 30/13Z 30/14Z 30/15Z 30/16Z 30/17Z 30/18Z 30/19Z 30/20Z 30/21Z
Type OBS PRVL PRVL PRVL PRVL PRVL PRVL PRVL PRVL PRVL PRVL PRVL PRVL PRVL
VIS 10 >6 >6 >6 >6 >6 >6 >6 >6 >6 >6 >6 >6 >6
CIG -- 8 8 8 8 8 8 8 8 8 -- -- -- --
Cover FEW OVC OVC OVC OVC OVC OVC OVC OVC OVC SCT SCT SCT FEW
FltCat VFR IFR IFR IFR IFR IFR IFR IFR IFR IFR VFR VFR VFR VFR
WX -- -- -- -- -- -- -- -- -- -- -- -- -- --
WDir 210 280 280 280 280 280 280 280 280 280 330 330 330 290
WSpd 6 10 10 10 10 10 10 10 10 10 6 6 6 14
WGst -- -- -- -- -- -- -- -- -- -- -- -- -- --
R01/19
XWnd 0 10 10 10 10 10 10 10 10 10 5 5 5 14
HWnd -6 -3 -3 -3 -3 -3 -3 -3 -3 -3 3 3 3 -2
R10/28
XWnd -6 -3 -3 -3 -3 -3 -3 -3 -3 -3 3 3 3 -2
HWnd -0 -10 -10 -10 -10 -10 -10 -10 -10 -10 -5 -5 -5 -14

NOTE: TEMPO conditions in [brackets]. Keep in mind TEMPO conditions might be better (lower impact) than prevailing conditions.

Raw TAF
KSFO 300533Z 3006/0112 30007KT P6SM FEW007 SCT010
  FM300900 28010KT P6SM OVC008
  FM301730 33006KT P6SM SCT012
  FM302100 29014KT P6SM FEW015
  FM010500 28010KT P6SM SCT012
  FM010800 28009KT P6SM BKN010


Raw METAR
KSFO 300756Z 21006KT 10SM FEW010 FEW013 13/09 A2992 RMK AO2 SLP133 T01280094 401720111
KSFO 300656Z 29003KT 10SM FEW010 SCT013 13/09 A2993 RMK AO2 SLP134 T01280094
KSFO 300556Z 29007KT 10SM FEW010 SCT014 13/09 A2994 RMK AO2 SLP138 T01280094 10161 20128 57005

METAR Board
Radar Display
Forecast Discussion

TAF Board Legend

Potential Impact
Threat None Slight Moderate High
Visibility (sm) ≥5.1 5.1>X≥3 3>X≥1 <1
Ceiling (100 ft) ≥30.1 30.1>X≥10 10>X≥5 <5
Wind Speed (kt) <10 10≤X<20 20≤X<30 ≥30
Wind Gust (kt) <15 15≤X<25 25≤X<35 ≥35
Weather No Wx Reported VCTS,-TS,-FZRA,SN TS,FZRA +TS,+FZRA,+SN